This is the latest recevied weather packets stored in our database for station/object N8XE-13. If no packets are shown the sender has not sent any weather packets the latest 10 day(s).
| Time | Temp. | Humidity | Pressure | Rain* | Wind** | Luminosity | Snow |
|---|---|---|---|---|---|---|---|
| 1777837108 | 17.22° C | 36% | - | 0 mm | - | - | - |
| 1777836804 | 17.22° C | 37% | - | 0 mm | - | - | - |
| 1777836501 | 17.22° C | 36% | - | 0 mm | - | - | - |
| 1777836196 | 17.22° C | 35% | - | 0 mm | - | - | - |
| 1777835892 | 16.67° C | 36% | - | 0 mm | - | - | - |
| 1777835590 | 16.67° C | 36% | - | 0 mm | - | - | - |
| 1777835286 | 16.67° C | 36% | - | 0 mm | - | - | - |
| 1777834983 | 17.78° C | 33% | - | 0 mm | - | - | - |
| 1777834680 | 17.78° C | 36% | - | 0 mm | - | - | - |
| 1777834376 | 17.78° C | 35% | - | 0 mm | - | - | - |
| 1777834075 | 17.78° C | 36% | - | 0 mm | - | - | - |
| 1777833772 | 16.67° C | 36% | - | 0 mm | - | - | - |
| 1777833468 | 16.67° C | 35% | - | 0 mm | - | - | - |
| 1777833166 | 16.67° C | 36% | - | 0 mm | - | - | - |
| 1777832864 | 16.67° C | 36% | - | 0 mm | - | - | - |
| 1777832562 | 16.11° C | 36% | - | 0 mm | - | - | - |
| 1777832259 | 16.11° C | 36% | - | 0 mm | - | - | - |
| 1777831956 | 16.67° C | 36% | - | 0 mm | - | - | - |
| 1777831652 | 16.67° C | 36% | - | 0 mm | - | - | - |
| 1777831351 | 16.11° C | 36% | - | 0 mm | - | - | - |
| 1777831047 | 15° C | 38% | - | 0 mm | - | - | - |
| 1777830745 | 16.11° C | 37% | - | 0 mm | - | - | - |
| 1777830440 | 16.67° C | 38% | - | 0 mm | - | - | - |
| 1777830139 | 16.67° C | 37% | - | 0 mm | - | - | - |
| 1777829834 | 15.56° C | 39% | - | 0 mm | - | - | - |
* Rain latest hour (hover to see other rain measurements)
** Current wind speed in m/s (hover to see current wind gust speed)